createdAt,value
2023-04-21T02:08:51.543Z,8.43
2023-04-21T02:11:18.159Z,7.30
2023-04-21T02:13:44.719Z,6.40
2023-04-21T02:16:14.178Z,7.45
2023-04-21T02:18:41.572Z,6.85
2023-04-21T02:21:08.444Z,6.20
2023-04-21T02:23:35.635Z,7.32
2023-04-21T02:26:02.309Z,7.72
2023-04-21T02:28:31.970Z,7.65
2023-04-21T02:30:58.773Z,8.95
2023-04-21T02:33:25.496Z,9.43
2023-04-21T02:35:52.046Z,10.73
2023-04-21T02:38:18.663Z,9.40
2023-04-21T02:40:45.197Z,9.13
2023-04-21T02:43:14.227Z,8.77
2023-04-21T02:45:40.851Z,8.75
2023-04-21T02:48:07.671Z,8.40
2023-04-21T02:50:34.383Z,8.70
2023-04-21T02:53:00.895Z,7.82
2023-04-21T02:55:27.772Z,7.85
2023-04-21T02:57:54.320Z,8.13
2023-04-21T03:00:29.657Z,8.67
2023-04-21T03:02:57.492Z,7.75
2023-04-21T03:05:24.302Z,7.63
2023-04-21T03:07:51.099Z,7.53
2023-04-21T03:10:19.412Z,7.93
2023-04-21T03:12:47.098Z,7.43
2023-04-21T03:15:14.398Z,7.43
2023-04-21T03:17:41.335Z,7.60
2023-04-21T03:20:08.627Z,7.38
2023-04-21T03:22:36.339Z,7.43
2023-04-21T03:25:03.309Z,7.63
2023-04-21T03:27:29.954Z,8.50
2023-04-21T03:29:57.026Z,8.20
2023-04-21T03:32:23.665Z,7.90
2023-04-21T03:34:50.490Z,7.95
2023-04-21T03:37:18.832Z,7.55
2023-04-21T03:39:45.411Z,7.93
2023-04-21T03:42:12.622Z,7.03
2023-04-21T03:44:39.178Z,7.78
2023-04-21T03:47:05.678Z,8.30
2023-04-21T03:49:34.639Z,8.20
2023-04-21T03:52:01.259Z,8.57
2023-04-21T03:54:28.090Z,9.75
2023-04-21T03:56:54.685Z,10.82
2023-04-21T03:59:21.526Z,11.15
2023-04-21T04:01:48.254Z,12.13
2023-04-21T04:04:15.200Z,11.93
2023-04-21T04:06:42.044Z,12.50
2023-04-21T04:09:09.165Z,10.80
2023-04-21T04:11:35.916Z,10.35
2023-04-21T04:14:02.410Z,12.07
2023-04-21T04:16:29.171Z,11.40
2023-04-21T04:18:56.451Z,12.63
2023-04-21T04:21:22.963Z,13.30
2023-04-21T04:23:51.751Z,13.57
2023-04-21T04:26:18.897Z,14.82
2023-04-21T04:28:46.006Z,14.98
2023-04-21T04:31:13.666Z,14.65
2023-04-21T04:33:46.592Z,15.32
2023-04-21T04:36:13.310Z,15.27
2023-04-21T04:38:40.286Z,14.77
2023-04-21T04:41:08.853Z,14.00
2023-04-21T04:43:41.891Z,14.68
2023-04-21T04:46:13.604Z,14.27
2023-04-21T04:48:40.760Z,14.55
2023-04-21T04:51:07.478Z,14.70
2023-04-21T04:53:33.986Z,14.77
2023-04-21T04:56:00.571Z,13.57
2023-04-21T04:58:27.201Z,13.63
2023-04-21T05:00:54.122Z,13.25
2023-04-21T05:03:20.642Z,12.90
2023-04-21T05:05:47.237Z,14.20
2023-04-21T05:08:15.683Z,13.93
2023-04-21T05:10:43.579Z,12.80
2023-04-21T05:13:10.203Z,12.77
2023-04-21T05:15:36.671Z,12.93
2023-04-21T05:18:03.182Z,12.05
2023-04-21T05:20:29.614Z,11.77
2023-04-21T05:22:56.107Z,12.80
2023-04-21T05:25:22.501Z,11.63
2023-04-21T05:27:48.963Z,11.50
2023-04-21T05:30:15.374Z,11.75
2023-04-21T05:32:41.820Z,12.05
2023-04-21T05:35:08.372Z,11.48
2023-04-21T05:37:35.159Z,11.48
2023-04-21T05:40:01.635Z,10.63
2023-04-21T05:42:28.113Z,10.52
2023-04-21T05:44:55.149Z,9.98
2023-04-21T05:47:21.610Z,9.75
2023-04-21T05:49:52.355Z,9.93
2023-04-21T05:52:18.984Z,8.82
2023-04-21T05:54:45.439Z,8.75
2023-04-21T05:57:11.825Z,10.32
2023-04-21T05:59:38.320Z,9.43
2023-04-21T06:02:04.913Z,9.63
2023-04-21T06:04:31.675Z,9.30
2023-04-21T06:06:58.227Z,9.25
2023-04-21T06:09:24.650Z,8.68
2023-04-21T06:11:51.121Z,9.15
2023-04-21T06:14:17.739Z,8.60
2023-04-21T06:16:44.513Z,9.25
2023-04-21T06:19:11.134Z,9.25
2023-04-21T06:21:37.659Z,8.57
2023-04-21T06:24:04.285Z,9.13
2023-04-21T06:26:30.736Z,7.40
2023-04-21T06:28:57.137Z,6.97
2023-04-21T06:31:23.567Z,6.85
2023-04-21T06:33:50.009Z,6.88
2023-04-21T06:36:17.974Z,7.82
2023-04-21T06:38:44.701Z,8.50
2023-04-21T06:41:11.136Z,7.65
2023-04-21T06:43:37.806Z,8.43
2023-04-21T06:46:04.399Z,9.13
2023-04-21T06:48:31.099Z,9.70
2023-04-21T06:50:57.543Z,10.35
2023-04-21T06:53:24.355Z,10.00
2023-04-21T06:55:52.233Z,9.85
2023-04-21T06:58:21.111Z,10.15
2023-04-21T07:03:14.481Z,9.25
2023-04-21T07:05:41.114Z,9.60
2023-04-21T07:08:07.539Z,9.00
2023-04-21T07:10:33.980Z,9.25
2023-04-21T07:13:00.504Z,10.15
2023-04-21T07:15:27.047Z,9.07
2023-04-21T07:17:53.458Z,8.93
2023-04-21T07:20:19.930Z,8.60
2023-04-21T07:22:46.322Z,8.70
2023-04-21T07:25:12.862Z,8.52
2023-04-21T07:27:39.351Z,8.93
2023-04-21T07:30:06.474Z,8.68
2023-04-21T07:32:33.732Z,9.05
2023-04-21T07:35:01.814Z,8.73
2023-04-21T07:37:28.590Z,9.13
2023-04-21T07:39:54.992Z,9.07
2023-04-21T07:42:22.379Z,9.77
2023-04-21T07:44:49.132Z,9.55
2023-04-21T07:47:15.547Z,9.52
2023-04-21T07:49:41.944Z,9.00
2023-04-21T07:52:08.792Z,9.38
2023-04-21T07:54:35.316Z,10.48
2023-04-21T07:57:02.559Z,10.48
2023-04-21T07:59:29.054Z,9.30
2023-04-21T08:01:55.655Z,10.32
2023-04-21T08:04:22.355Z,10.75
2023-04-21T08:06:49.060Z,11.70
2023-04-21T08:09:15.634Z,11.40
2023-04-21T08:11:42.079Z,11.07
2023-04-21T08:14:10.059Z,12.40
2023-04-21T08:16:36.867Z,12.13
2023-04-21T08:19:03.655Z,11.60
2023-04-21T08:21:31.597Z,12.80
2023-04-21T08:23:58.098Z,12.02
2023-04-21T08:26:25.067Z,12.52
2023-04-21T08:28:52.615Z,12.95
2023-04-21T08:31:19.520Z,13.20
2023-04-21T08:33:58.046Z,13.43
2023-04-21T08:36:29.861Z,11.80
2023-04-21T08:38:56.803Z,11.35
2023-04-21T08:41:24.393Z,12.07
2023-04-21T08:43:50.852Z,13.32
2023-04-21T08:46:17.701Z,12.00
2023-04-21T08:48:46.094Z,11.35
2023-04-21T08:51:15.104Z,13.55
2023-04-21T08:53:41.584Z,13.40
2023-04-21T08:56:11.226Z,13.57
2023-04-21T08:58:38.229Z,13.30
2023-04-21T09:01:04.721Z,15.40
2023-04-21T09:03:31.370Z,17.58
2023-04-21T09:06:02.861Z,17.33
2023-04-21T09:08:30.472Z,17.45
2023-04-21T09:10:57.794Z,17.05
2023-04-21T09:13:37.011Z,18.02
2023-04-21T09:18:37.317Z,18.13
2023-04-21T09:21:18.271Z,18.33
2023-04-21T09:23:47.665Z,17.50
2023-04-21T09:28:44.613Z,17.63
2023-04-21T09:31:24.278Z,18.02
2023-04-21T09:33:59.491Z,18.88
2023-04-21T09:36:29.187Z,18.30
2023-04-21T09:41:32.051Z,17.90
2023-04-21T09:44:01.400Z,18.40
2023-04-21T09:46:30.139Z,17.80
2023-04-21T09:48:58.597Z,18.40
2023-04-21T09:51:37.276Z,17.83
2023-04-21T09:54:28.979Z,17.75
2023-04-21T09:56:59.269Z,17.67
2023-04-21T09:59:29.960Z,17.73
2023-04-21T10:01:57.894Z,16.92
2023-04-21T10:04:26.222Z,18.20
2023-04-21T10:06:53.378Z,16.90
2023-04-21T10:09:21.834Z,14.93
2023-04-21T10:11:48.538Z,15.03
2023-04-21T10:14:15.069Z,15.25
2023-04-21T10:16:42.586Z,14.68
2023-04-21T10:19:26.137Z,14.10
2023-04-21T10:21:55.707Z,13.80
2023-04-21T10:24:22.437Z,13.93
2023-04-21T10:26:51.927Z,14.18
2023-04-21T10:29:43.623Z,12.77
2023-04-21T10:32:31.528Z,12.45
2023-04-21T10:34:57.992Z,12.75
2023-04-21T10:37:24.449Z,14.30
2023-04-21T10:39:56.007Z,14.48
2023-04-21T10:42:27.196Z,14.93
2023-04-21T10:45:02.100Z,15.48
2023-04-21T10:47:36.929Z,14.75
2023-04-21T10:50:25.355Z,14.75
2023-04-21T10:52:57.200Z,14.55
2023-04-21T10:55:26.846Z,14.93
2023-04-21T10:57:53.260Z,16.30
2023-04-21T11:00:22.955Z,16.90
2023-04-21T11:02:57.930Z,16.20
2023-04-21T11:05:32.103Z,16.08
2023-04-21T11:08:03.319Z,14.23
2023-04-21T11:10:29.775Z,14.70
2023-04-21T11:12:57.609Z,13.32
2023-04-21T11:15:24.126Z,13.07
2023-04-21T11:17:51.178Z,11.98
2023-04-21T11:20:17.732Z,14.05
2023-04-21T11:22:44.182Z,12.45
2023-04-21T11:25:18.297Z,13.45
2023-04-21T11:27:54.041Z,13.55
2023-04-21T11:30:20.749Z,13.90
2023-04-21T11:32:53.929Z,13.43
2023-04-21T11:35:20.403Z,14.32
2023-04-21T11:37:50.332Z,12.90
2023-04-21T11:40:16.779Z,11.75
2023-04-21T11:42:43.235Z,10.82
2023-04-21T11:45:16.568Z,10.88
2023-04-21T11:47:43.009Z,11.95
2023-04-21T11:50:10.157Z,11.35
2023-04-21T11:52:41.164Z,12.23
2023-04-21T11:55:16.236Z,12.07
2023-04-21T11:57:42.683Z,11.88
2023-04-21T12:00:16.776Z,12.27
2023-04-21T12:02:43.805Z,12.35
2023-04-21T12:05:12.166Z,12.57
2023-04-21T12:07:41.942Z,13.63
2023-04-21T12:10:13.599Z,12.70
2023-04-21T12:12:41.581Z,11.77
2023-04-21T12:15:09.922Z,13.18
2023-04-21T12:17:40.438Z,13.63
2023-04-21T12:20:07.765Z,13.77
2023-04-21T12:22:34.416Z,12.13
2023-04-21T12:25:00.886Z,13.38
2023-04-21T12:27:28.008Z,13.50
2023-04-21T12:29:54.424Z,12.57
2023-04-21T12:32:21.406Z,12.20
2023-04-21T12:34:47.968Z,13.07
2023-04-21T12:37:14.438Z,11.98
2023-04-21T12:39:41.134Z,13.07
2023-04-21T12:42:07.755Z,13.00
2023-04-21T12:44:34.232Z,12.38
2023-04-21T12:47:00.828Z,12.63
2023-04-21T12:49:27.487Z,12.43
2023-04-21T12:51:53.954Z,12.45
2023-04-21T12:54:20.570Z,12.35
2023-04-21T12:56:47.162Z,12.90
2023-04-21T12:59:13.561Z,11.95
2023-04-21T13:01:41.272Z,13.02
2023-04-21T13:04:08.317Z,12.73
2023-04-21T13:06:34.993Z,12.63
2023-04-21T13:09:01.721Z,11.77
2023-04-21T13:11:28.191Z,11.88
2023-04-21T13:13:54.656Z,12.05
2023-04-21T13:16:21.149Z,12.43
2023-04-21T13:18:47.639Z,12.45
2023-04-21T13:21:14.206Z,12.77
2023-04-21T13:23:40.903Z,11.57
2023-04-21T13:26:07.793Z,12.00
2023-04-21T13:28:34.520Z,11.50
2023-04-21T13:31:01.345Z,11.25
2023-04-21T13:33:27.989Z,13.20
2023-04-21T13:35:54.540Z,9.93
2023-04-21T13:38:21.073Z,10.15
2023-04-21T13:40:48.889Z,10.20
2023-04-21T13:43:15.597Z,9.23
2023-04-21T13:45:42.012Z,9.55
2023-04-21T13:48:08.510Z,8.90
2023-04-21T13:50:35.225Z,9.80
2023-04-21T13:53:01.927Z,10.85
2023-04-21T13:55:28.412Z,9.02
2023-04-21T13:57:55.115Z,9.25
2023-04-21T14:00:21.884Z,9.20
2023-04-21T14:02:48.717Z,9.23
2023-04-21T14:05:15.941Z,8.30
2023-04-21T14:07:42.912Z,8.15
2023-04-21T14:10:09.800Z,8.43
2023-04-21T14:12:36.224Z,8.73
2023-04-21T14:15:02.713Z,8.40
2023-04-21T14:17:29.193Z,7.85
2023-04-21T14:19:55.738Z,7.82
2023-04-21T14:22:22.178Z,7.95
2023-04-21T14:24:48.575Z,7.57
2023-04-21T14:27:15.099Z,8.02
2023-04-21T14:29:41.573Z,7.10
2023-04-21T14:32:08.140Z,7.28
2023-04-21T14:34:34.601Z,7.75
2023-04-21T14:37:01.203Z,6.68
2023-04-21T14:39:27.913Z,6.30
2023-04-21T14:41:54.356Z,7.20
2023-04-21T14:44:20.910Z,6.32
2023-04-21T14:46:53.745Z,6.22
2023-04-21T14:49:27.969Z,6.30
2023-04-21T14:51:54.522Z,5.38
2023-04-21T14:54:20.937Z,6.15
2023-04-21T14:56:47.462Z,6.28
2023-04-21T14:59:13.901Z,5.80
2023-04-21T15:01:40.499Z,5.38
2023-04-21T15:04:07.201Z,5.07
2023-04-21T15:06:33.907Z,4.80
2023-04-21T15:09:00.422Z,5.50
2023-04-21T15:11:26.884Z,6.10
2023-04-21T15:13:53.473Z,6.22
2023-04-21T15:16:19.997Z,5.80
2023-04-21T15:18:46.576Z,5.25
2023-04-21T15:21:13.108Z,5.05
2023-04-21T15:23:39.622Z,4.65
2023-04-21T15:26:06.097Z,5.40
2023-04-21T15:28:32.769Z,5.07
2023-04-21T15:30:59.587Z,5.13
2023-04-21T15:33:26.056Z,5.45
2023-04-21T15:35:52.595Z,4.82
2023-04-21T15:38:20.973Z,4.95
2023-04-21T15:40:59.698Z,4.53
2023-04-21T15:43:26.904Z,3.95
2023-04-21T15:45:53.510Z,4.78
2023-04-21T15:48:21.948Z,4.07
2023-04-21T15:50:48.836Z,38.90
2023-04-21T15:53:16.681Z,6.07
2023-04-21T15:55:45.082Z,4.20
2023-04-21T15:58:13.379Z,4.45
2023-04-21T16:00:43.058Z,4.22
2023-04-21T16:03:09.715Z,4.10
2023-04-21T16:05:36.524Z,4.68
2023-04-21T16:08:03.213Z,4.68
2023-04-21T16:10:29.642Z,4.15
2023-04-21T16:12:56.105Z,3.95
2023-04-21T16:15:24.754Z,3.90
2023-04-21T16:20:18.392Z,4.47
2023-04-21T16:22:44.892Z,4.88
2023-04-21T16:25:16.106Z,4.70
2023-04-21T16:27:42.750Z,4.05
2023-04-21T16:30:09.653Z,5.03
2023-04-21T16:32:36.335Z,4.97
2023-04-21T16:35:07.826Z,4.05
2023-04-21T16:37:35.788Z,4.22
2023-04-21T16:40:02.272Z,3.80
2023-04-21T16:42:28.744Z,4.18
2023-04-21T16:44:58.888Z,4.30
2023-04-21T16:47:25.686Z,4.30
2023-04-21T16:49:52.469Z,3.40
2023-04-21T16:52:18.926Z,3.90
2023-04-21T16:54:45.356Z,3.30
2023-04-21T16:57:11.757Z,3.80
2023-04-21T16:59:38.204Z,3.95
2023-04-21T17:02:04.748Z,3.60
2023-04-21T17:04:31.372Z,3.50
2023-04-21T17:06:57.807Z,3.50
2023-04-21T17:09:24.207Z,3.58
2023-04-21T17:11:50.671Z,3.72
2023-04-21T17:14:17.152Z,3.70
2023-04-21T17:16:43.761Z,3.28
2023-04-21T17:19:10.160Z,2.10
2023-04-21T17:21:36.654Z,1.48
2023-04-21T17:24:03.524Z,1.50
2023-04-21T17:26:30.006Z,1.30
2023-04-21T17:28:57.386Z,1.40
2023-04-21T17:31:23.812Z,1.40
2023-04-21T17:33:52.811Z,1.13
2023-04-21T17:36:19.411Z,1.00
2023-04-21T17:38:45.868Z,0.90
2023-04-21T17:41:12.371Z,0.98
2023-04-21T17:43:38.820Z,1.00
2023-04-21T17:46:06.490Z,0.88
2023-04-21T17:48:33.443Z,1.05
2023-04-21T17:50:59.961Z,0.77
2023-04-21T17:53:27.181Z,1.10
2023-04-21T17:55:53.611Z,0.90
2023-04-21T17:58:20.176Z,0.90
2023-04-21T18:00:46.642Z,0.93
2023-04-21T18:03:13.157Z,0.90
2023-04-21T18:05:39.965Z,0.95
2023-04-21T18:08:06.387Z,0.80
2023-04-21T18:10:32.865Z,1.02
2023-04-21T18:12:59.567Z,1.02
2023-04-21T18:15:26.297Z,0.88
2023-04-21T18:17:53.067Z,0.90
2023-04-21T18:20:19.761Z,0.95
2023-04-21T18:22:46.434Z,1.00
2023-04-21T18:25:13.111Z,0.90
2023-04-21T18:27:39.833Z,0.90
2023-04-21T18:30:08.599Z,1.00
2023-04-21T18:32:38.782Z,1.33
2023-04-21T18:35:07.071Z,2.15
2023-04-21T18:37:33.897Z,1.48
2023-04-21T18:40:00.531Z,0.90
2023-04-21T18:42:27.201Z,0.90
2023-04-21T18:44:57.011Z,0.90
2023-04-21T18:47:24.427Z,0.82
2023-04-21T18:49:51.563Z,0.75
2023-04-21T18:52:18.079Z,0.80
2023-04-21T18:54:44.505Z,0.70
2023-04-21T18:57:11.480Z,0.90
2023-04-21T18:59:37.913Z,0.90
2023-04-21T19:02:06.078Z,0.90
2023-04-21T19:04:33.100Z,0.95
2023-04-21T19:06:59.877Z,0.88
2023-04-21T19:09:27.988Z,0.90
2023-04-21T19:11:54.550Z,1.10
2023-04-21T19:14:21.135Z,0.80
2023-04-21T19:16:48.629Z,0.90
2023-04-21T19:19:15.640Z,1.13
2023-04-21T19:21:42.158Z,0.90
2023-04-21T19:24:08.633Z,1.00
2023-04-21T19:26:35.201Z,1.05
2023-04-21T19:29:01.682Z,1.15
2023-04-21T19:31:28.324Z,1.30
2023-04-21T19:33:54.833Z,1.00
2023-04-21T19:36:21.383Z,0.98
2023-04-21T19:38:47.937Z,1.30
2023-04-21T19:41:14.422Z,1.38
2023-04-21T19:43:41.036Z,1.52
2023-04-21T19:46:07.871Z,1.30
2023-04-21T19:48:34.528Z,1.50
2023-04-21T19:51:01.139Z,1.60
2023-04-21T19:53:27.596Z,1.15
2023-04-21T19:55:54.191Z,1.50
2023-04-21T19:58:32.611Z,1.98
2023-04-21T20:01:06.026Z,1.60
2023-04-21T20:03:33.059Z,1.77
2023-04-21T20:06:00.077Z,1.75
2023-04-21T20:08:26.587Z,2.15
2023-04-21T20:10:53.014Z,1.70
2023-04-21T20:13:19.411Z,1.90
2023-04-21T20:15:46.069Z,2.20
2023-04-21T20:18:12.898Z,1.98
2023-04-21T20:20:40.448Z,2.13
2023-04-21T20:23:07.010Z,2.22
2023-04-21T20:25:33.565Z,1.70
2023-04-21T20:28:00.036Z,1.65
2023-04-21T20:30:26.532Z,1.98
2023-04-21T20:32:53.077Z,2.20
2023-04-21T20:35:19.592Z,2.10
2023-04-21T20:37:47.220Z,2.05
2023-04-21T20:40:14.705Z,2.20
2023-04-21T20:42:44.939Z,2.20
2023-04-21T20:45:11.587Z,1.90
2023-04-21T20:47:38.363Z,2.15
2023-04-21T20:50:05.522Z,2.33
2023-04-21T20:52:32.133Z,2.30
2023-04-21T20:54:58.650Z,2.00
2023-04-21T20:57:26.789Z,1.88
2023-04-21T20:59:53.289Z,1.73
2023-04-21T21:02:19.859Z,1.80
2023-04-21T21:04:47.588Z,1.83
2023-04-21T21:07:14.586Z,1.42
2023-04-21T21:09:41.334Z,1.50
2023-04-21T21:12:08.032Z,1.48
2023-04-21T21:14:34.890Z,1.40
2023-04-21T21:17:01.509Z,1.60
2023-04-21T21:19:28.342Z,1.50
2023-04-21T21:21:54.896Z,1.70
2023-04-21T21:24:21.391Z,1.50
2023-04-21T21:26:48.014Z,2.33
2023-04-21T21:29:14.498Z,2.47
2023-04-21T21:31:40.936Z,2.38
2023-04-21T21:34:07.413Z,2.10
2023-04-21T21:36:34.051Z,2.25
2023-04-21T21:39:00.625Z,2.38
2023-04-21T21:41:27.399Z,1.80
2023-04-21T21:43:53.789Z,1.98
2023-04-21T21:46:20.288Z,1.90
2023-04-21T21:48:46.786Z,2.10
2023-04-21T21:51:13.186Z,1.88
2023-04-21T21:53:41.761Z,1.60
2023-04-21T21:56:08.260Z,1.55
2023-04-21T21:58:34.723Z,2.13
2023-04-21T22:01:01.273Z,2.00
2023-04-21T22:03:28.053Z,1.70
2023-04-21T22:05:54.661Z,1.65
2023-04-21T22:08:21.180Z,1.60
2023-04-21T22:10:47.711Z,1.50
2023-04-21T22:13:14.140Z,1.65
2023-04-21T22:15:41.217Z,1.42
2023-04-21T22:18:08.256Z,1.50
2023-04-21T22:20:34.758Z,1.30
2023-04-21T22:23:01.239Z,1.20
2023-04-21T22:25:27.839Z,1.30
2023-04-21T22:27:55.273Z,1.58
2023-04-21T22:30:21.840Z,1.60
2023-04-21T22:32:48.394Z,1.60
2023-04-21T22:35:14.948Z,1.45
2023-04-21T22:37:42.073Z,1.42
2023-04-21T22:40:09.834Z,1.50
2023-04-21T22:42:36.619Z,1.70
2023-04-21T22:45:05.249Z,1.50
2023-04-21T22:47:32.720Z,1.67
2023-04-21T22:49:59.520Z,1.40
2023-04-21T22:52:26.783Z,1.58
2023-04-21T22:54:53.529Z,1.52
2023-04-21T22:57:20.953Z,1.70
2023-04-21T22:59:47.613Z,1.80
2023-04-21T23:02:14.426Z,1.92
2023-04-21T23:04:41.185Z,3.00
2023-04-21T23:07:07.862Z,3.00
2023-04-21T23:09:34.271Z,2.72
2023-04-21T23:12:01.438Z,2.70
2023-04-21T23:14:27.998Z,2.72
2023-04-21T23:16:54.549Z,2.05
2023-04-21T23:19:21.054Z,2.25
